sensor_id;sensor_type;location;lat;lon;timestamp;P1;durP1;ratioP1;P2;durP2;ratioP2
55292;SDS011;41157;53.560;10.098;2022-08-01T00:01:54;14.45;;;11.90;;
55292;SDS011;41157;53.560;10.098;2022-08-01T00:04:19;12.13;;;10.88;;
55292;SDS011;41157;53.560;10.098;2022-08-01T00:06:45;12.38;;;11.18;;
55292;SDS011;41157;53.560;10.098;2022-08-01T00:09:11;14.57;;;10.50;;
55292;SDS011;41157;53.560;10.098;2022-08-01T00:11:37;11.40;;;9.50;;
55292;SDS011;41157;53.560;10.098;2022-08-01T00:14:03;11.95;;;10.32;;
55292;SDS011;41157;53.560;10.098;2022-08-01T00:16:29;9.98;;;9.02;;
55292;SDS011;41157;53.560;10.098;2022-08-01T00:18:55;11.45;;;10.15;;
55292;SDS011;41157;53.560;10.098;2022-08-01T00:21:22;11.25;;;9.40;;
55292;SDS011;41157;53.560;10.098;2022-08-01T00:23:48;12.40;;;9.93;;
55292;SDS011;41157;53.560;10.098;2022-08-01T00:26:14;11.40;;;9.98;;
55292;SDS011;41157;53.560;10.098;2022-08-01T00:28:40;11.98;;;9.95;;
55292;SDS011;41157;53.560;10.098;2022-08-01T00:31:06;10.30;;;9.30;;
55292;SDS011;41157;53.560;10.098;2022-08-01T00:33:32;10.52;;;8.82;;
55292;SDS011;41157;53.560;10.098;2022-08-01T00:35:58;10.68;;;9.13;;
55292;SDS011;41157;53.560;10.098;2022-08-01T00:38:24;13.70;;;9.23;;
55292;SDS011;41157;53.560;10.098;2022-08-01T00:40:50;10.23;;;8.90;;
55292;SDS011;41157;53.560;10.098;2022-08-01T00:43:16;10.45;;;9.38;;
55292;SDS011;41157;53.560;10.098;2022-08-01T00:45:42;10.57;;;9.52;;
55292;SDS011;41157;53.560;10.098;2022-08-01T00:48:08;10.32;;;9.20;;
55292;SDS011;41157;53.560;10.098;2022-08-01T00:50:34;11.40;;;9.70;;
55292;SDS011;41157;53.560;10.098;2022-08-01T00:53:01;12.38;;;8.75;;
55292;SDS011;41157;53.560;10.098;2022-08-01T00:55:27;12.98;;;10.10;;
55292;SDS011;41157;53.560;10.098;2022-08-01T00:57:54;9.85;;;8.82;;
55292;SDS011;41157;53.560;10.098;2022-08-01T01:00:20;11.50;;;9.90;;
55292;SDS011;41157;53.560;10.098;2022-08-01T01:02:46;11.05;;;9.40;;
55292;SDS011;41157;53.560;10.098;2022-08-01T01:05:13;10.73;;;9.65;;
55292;SDS011;41157;53.560;10.098;2022-08-01T01:07:50;10.88;;;8.95;;
55292;SDS011;41157;53.560;10.098;2022-08-01T01:12:50;10.98;;;8.70;;
55292;SDS011;41157;53.560;10.098;2022-08-01T01:15:28;10.82;;;8.48;;
55292;SDS011;41157;53.560;10.098;2022-08-01T01:18:12;8.95;;;7.72;;
55292;SDS011;41157;53.560;10.098;2022-08-01T01:20:41;11.82;;;7.78;;
55292;SDS011;41157;53.560;10.098;2022-08-01T01:28:30;9.48;;;7.00;;
55292;SDS011;41157;53.560;10.098;2022-08-01T01:30:57;7.47;;;6.60;;
55292;SDS011;41157;53.560;10.098;2022-08-01T01:33:25;7.10;;;6.40;;
55292;SDS011;41157;53.560;10.098;2022-08-01T01:35:54;9.98;;;7.55;;
55292;SDS011;41157;53.560;10.098;2022-08-01T01:38:24;7.75;;;6.82;;
55292;SDS011;41157;53.560;10.098;2022-08-01T01:40:52;9.32;;;6.82;;
55292;SDS011;41157;53.560;10.098;2022-08-01T01:43:18;9.07;;;6.75;;
55292;SDS011;41157;53.560;10.098;2022-08-01T01:45:46;9.48;;;6.68;;
55292;SDS011;41157;53.560;10.098;2022-08-01T01:48:13;8.07;;;7.10;;
55292;SDS011;41157;53.560;10.098;2022-08-01T01:50:40;8.20;;;7.10;;
55292;SDS011;41157;53.560;10.098;2022-08-01T01:53:07;9.02;;;7.50;;
55292;SDS011;41157;53.560;10.098;2022-08-01T01:55:35;9.18;;;7.90;;
55292;SDS011;41157;53.560;10.098;2022-08-01T01:58:02;9.13;;;7.82;;
55292;SDS011;41157;53.560;10.098;2022-08-01T02:00:29;10.73;;;7.60;;
55292;SDS011;41157;53.560;10.098;2022-08-01T02:02:56;8.55;;;7.57;;
55292;SDS011;41157;53.560;10.098;2022-08-01T02:05:22;9.13;;;8.23;;
55292;SDS011;41157;53.560;10.098;2022-08-01T02:07:49;9.85;;;8.30;;
55292;SDS011;41157;53.560;10.098;2022-08-01T02:10:16;9.13;;;8.20;;
55292;SDS011;41157;53.560;10.098;2022-08-01T02:12:43;10.85;;;8.10;;
55292;SDS011;41157;53.560;10.098;2022-08-01T02:15:11;10.38;;;8.38;;
55292;SDS011;41157;53.560;10.098;2022-08-01T02:17:39;13.48;;;9.23;;
55292;SDS011;41157;53.560;10.098;2022-08-01T02:20:07;10.60;;;8.50;;
55292;SDS011;41157;53.560;10.098;2022-08-01T02:22:52;10.73;;;7.80;;
55292;SDS011;41157;53.560;10.098;2022-08-01T02:25:25;8.98;;;8.05;;
55292;SDS011;41157;53.560;10.098;2022-08-01T02:27:59;11.40;;;8.45;;
55292;SDS011;41157;53.560;10.098;2022-08-01T02:30:26;8.88;;;8.02;;
55292;SDS011;41157;53.560;10.098;2022-08-01T02:32:58;11.23;;;7.68;;
55292;SDS011;41157;53.560;10.098;2022-08-01T02:35:27;9.02;;;7.72;;
55292;SDS011;41157;53.560;10.098;2022-08-01T02:37:53;11.20;;;7.40;;
55292;SDS011;41157;53.560;10.098;2022-08-01T02:40:20;8.55;;;7.30;;
55292;SDS011;41157;53.560;10.098;2022-08-01T02:42:47;7.55;;;6.78;;
55292;SDS011;41157;53.560;10.098;2022-08-01T02:45:15;10.35;;;6.57;;
55292;SDS011;41157;53.560;10.098;2022-08-01T02:47:43;6.95;;;6.35;;
55292;SDS011;41157;53.560;10.098;2022-08-01T02:50:10;7.88;;;6.85;;
55292;SDS011;41157;53.560;10.098;2022-08-01T02:52:38;7.65;;;6.40;;
55292;SDS011;41157;53.560;10.098;2022-08-01T02:55:05;10.20;;;6.63;;
55292;SDS011;41157;53.560;10.098;2022-08-01T02:57:32;7.35;;;5.72;;
55292;SDS011;41157;53.560;10.098;2022-08-01T02:59:58;10.57;;;5.70;;
55292;SDS011;41157;53.560;10.098;2022-08-01T03:02:25;8.85;;;6.38;;
55292;SDS011;41157;53.560;10.098;2022-08-01T03:04:52;8.90;;;6.13;;
55292;SDS011;41157;53.560;10.098;2022-08-01T03:07:18;7.45;;;6.55;;
55292;SDS011;41157;53.560;10.098;2022-08-01T03:09:45;7.18;;;6.30;;
55292;SDS011;41157;53.560;10.098;2022-08-01T03:12:15;6.95;;;5.90;;
55292;SDS011;41157;53.560;10.098;2022-08-01T03:14:44;7.10;;;6.18;;
55292;SDS011;41157;53.560;10.098;2022-08-01T03:17:11;7.32;;;6.18;;
55292;SDS011;41157;53.560;10.098;2022-08-01T03:19:38;12.85;;;6.32;;
55292;SDS011;41157;53.560;10.098;2022-08-01T03:22:08;8.25;;;5.95;;
55292;SDS011;41157;53.560;10.098;2022-08-01T03:24:35;8.40;;;5.78;;
55292;SDS011;41157;53.560;10.098;2022-08-01T03:27:02;6.65;;;5.40;;
55292;SDS011;41157;53.560;10.098;2022-08-01T03:29:28;8.32;;;5.88;;
55292;SDS011;41157;53.560;10.098;2022-08-01T03:31:55;7.28;;;5.38;;
55292;SDS011;41157;53.560;10.098;2022-08-01T03:34:21;9.55;;;5.57;;
55292;SDS011;41157;53.560;10.098;2022-08-01T03:39:55;6.00;;;5.40;;
55292;SDS011;41157;53.560;10.098;2022-08-01T03:42:25;6.97;;;5.20;;
55292;SDS011;41157;53.560;10.098;2022-08-01T03:44:54;8.95;;;5.65;;
55292;SDS011;41157;53.560;10.098;2022-08-01T03:47:24;5.70;;;5.20;;
55292;SDS011;41157;53.560;10.098;2022-08-01T03:49:51;6.10;;;5.50;;
55292;SDS011;41157;53.560;10.098;2022-08-01T03:52:18;6.95;;;5.10;;
55292;SDS011;41157;53.560;10.098;2022-08-01T03:54:47;7.05;;;4.97;;
55292;SDS011;41157;53.560;10.098;2022-08-01T03:57:13;7.00;;;5.32;;
55292;SDS011;41157;53.560;10.098;2022-08-01T03:59:40;5.90;;;4.72;;
55292;SDS011;41157;53.560;10.098;2022-08-01T04:02:06;5.80;;;4.95;;
55292;SDS011;41157;53.560;10.098;2022-08-01T04:04:33;5.80;;;4.80;;
55292;SDS011;41157;53.560;10.098;2022-08-01T04:06:59;6.18;;;3.90;;
55292;SDS011;41157;53.560;10.098;2022-08-01T04:09:31;6.88;;;4.38;;
55292;SDS011;41157;53.560;10.098;2022-08-01T04:12:00;5.00;;;4.03;;
55292;SDS011;41157;53.560;10.098;2022-08-01T04:14:26;7.15;;;4.00;;
55292;SDS011;41157;53.560;10.098;2022-08-01T04:16:53;7.43;;;4.35;;
55292;SDS011;41157;53.560;10.098;2022-08-01T04:19:19;6.25;;;4.20;;
55292;SDS011;41157;53.560;10.098;2022-08-01T04:21:45;7.45;;;4.05;;
55292;SDS011;41157;53.560;10.098;2022-08-01T04:24:15;8.20;;;4.05;;
55292;SDS011;41157;53.560;10.098;2022-08-01T04:26:43;4.53;;;3.75;;
55292;SDS011;41157;53.560;10.098;2022-08-01T04:29:09;4.50;;;3.92;;
55292;SDS011;41157;53.560;10.098;2022-08-01T04:31:36;4.80;;;4.35;;
55292;SDS011;41157;53.560;10.098;2022-08-01T04:34:04;6.50;;;4.28;;
55292;SDS011;41157;53.560;10.098;2022-08-01T04:36:31;6.03;;;4.40;;
55292;SDS011;41157;53.560;10.098;2022-08-01T04:38:59;9.13;;;4.57;;
55292;SDS011;41157;53.560;10.098;2022-08-01T04:41:25;5.65;;;3.83;;
55292;SDS011;41157;53.560;10.098;2022-08-01T04:43:52;6.82;;;4.40;;
55292;SDS011;41157;53.560;10.098;2022-08-01T04:46:19;8.43;;;4.38;;
55292;SDS011;41157;53.560;10.098;2022-08-01T04:48:46;7.68;;;4.57;;
55292;SDS011;41157;53.560;10.098;2022-08-01T04:51:14;5.93;;;4.65;;
55292;SDS011;41157;53.560;10.098;2022-08-01T04:53:40;4.93;;;4.43;;
55292;SDS011;41157;53.560;10.098;2022-08-01T04:56:06;5.78;;;4.80;;
55292;SDS011;41157;53.560;10.098;2022-08-01T04:58:32;6.35;;;4.55;;
55292;SDS011;41157;53.560;10.098;2022-08-01T05:00:58;5.82;;;4.35;;
55292;SDS011;41157;53.560;10.098;2022-08-01T05:03:24;8.35;;;4.50;;
55292;SDS011;41157;53.560;10.098;2022-08-01T05:05:50;4.85;;;3.40;;
55292;SDS011;41157;53.560;10.098;2022-08-01T05:08:16;4.32;;;3.72;;
55292;SDS011;41157;53.560;10.098;2022-08-01T05:10:42;9.75;;;3.30;;
55292;SDS011;41157;53.560;10.098;2022-08-01T05:13:08;4.38;;;3.30;;
55292;SDS011;41157;53.560;10.098;2022-08-01T05:15:34;7.63;;;3.67;;
55292;SDS011;41157;53.560;10.098;2022-08-01T05:18:03;3.25;;;2.92;;
55292;SDS011;41157;53.560;10.098;2022-08-01T05:20:29;4.50;;;2.92;;
55292;SDS011;41157;53.560;10.098;2022-08-01T05:22:55;2.88;;;2.50;;
55292;SDS011;41157;53.560;10.098;2022-08-01T05:25:22;2.53;;;1.70;;
55292;SDS011;41157;53.560;10.098;2022-08-01T05:27:48;2.88;;;2.03;;
55292;SDS011;41157;53.560;10.098;2022-08-01T05:30:14;2.10;;;1.60;;
55292;SDS011;41157;53.560;10.098;2022-08-01T05:32:40;1.95;;;1.42;;
55292;SDS011;41157;53.560;10.098;2022-08-01T05:35:06;3.53;;;1.50;;
55292;SDS011;41157;53.560;10.098;2022-08-01T05:37:33;2.97;;;1.50;;
55292;SDS011;41157;53.560;10.098;2022-08-01T05:39:59;1.55;;;1.42;;
55292;SDS011;41157;53.560;10.098;2022-08-01T05:42:25;2.13;;;1.60;;
55292;SDS011;41157;53.560;10.098;2022-08-01T05:44:51;3.05;;;1.55;;
55292;SDS011;41157;53.560;10.098;2022-08-01T05:47:17;2.63;;;1.65;;
55292;SDS011;41157;53.560;10.098;2022-08-01T05:49:44;4.63;;;1.90;;
55292;SDS011;41157;53.560;10.098;2022-08-01T05:52:10;3.80;;;1.98;;
55292;SDS011;41157;53.560;10.098;2022-08-01T05:54:36;4.50;;;2.05;;
55292;SDS011;41157;53.560;10.098;2022-08-01T05:57:02;2.15;;;1.90;;
55292;SDS011;41157;53.560;10.098;2022-08-01T05:59:28;2.63;;;1.67;;
55292;SDS011;41157;53.560;10.098;2022-08-01T06:01:55;5.55;;;2.08;;
55292;SDS011;41157;53.560;10.098;2022-08-01T06:04:21;2.65;;;1.70;;
55292;SDS011;41157;53.560;10.098;2022-08-01T06:06:48;3.22;;;1.65;;
55292;SDS011;41157;53.560;10.098;2022-08-01T06:09:14;6.10;;;2.17;;
55292;SDS011;41157;53.560;10.098;2022-08-01T06:11:40;5.38;;;2.22;;
55292;SDS011;41157;53.560;10.098;2022-08-01T06:14:06;4.38;;;1.90;;
55292;SDS011;41157;53.560;10.098;2022-08-01T06:16:32;2.53;;;1.80;;
55292;SDS011;41157;53.560;10.098;2022-08-01T06:18:58;6.82;;;2.08;;
55292;SDS011;41157;53.560;10.098;2022-08-01T06:21:24;4.00;;;1.70;;
55292;SDS011;41157;53.560;10.098;2022-08-01T06:23:50;3.95;;;2.08;;
55292;SDS011;41157;53.560;10.098;2022-08-01T06:26:19;2.33;;;1.70;;
55292;SDS011;41157;53.560;10.098;2022-08-01T06:28:45;2.72;;;1.75;;
55292;SDS011;41157;53.560;10.098;2022-08-01T06:31:11;4.57;;;2.25;;
55292;SDS011;41157;53.560;10.098;2022-08-01T06:33:38;6.00;;;2.33;;
55292;SDS011;41157;53.560;10.098;2022-08-01T06:36:05;2.90;;;2.13;;
55292;SDS011;41157;53.560;10.098;2022-08-01T06:38:31;4.32;;;2.22;;
55292;SDS011;41157;53.560;10.098;2022-08-01T06:40:57;3.85;;;2.00;;
55292;SDS011;41157;53.560;10.098;2022-08-01T06:43:23;8.18;;;2.67;;
55292;SDS011;41157;53.560;10.098;2022-08-01T06:45:49;7.90;;;2.50;;
55292;SDS011;41157;53.560;10.098;2022-08-01T06:48:15;8.50;;;2.60;;
55292;SDS011;41157;53.560;10.098;2022-08-01T06:50:41;5.60;;;2.80;;
55292;SDS011;41157;53.560;10.098;2022-08-01T06:53:07;6.68;;;2.90;;
55292;SDS011;41157;53.560;10.098;2022-08-01T06:55:33;8.48;;;3.58;;
55292;SDS011;41157;53.560;10.098;2022-08-01T06:57:59;6.80;;;3.72;;
55292;SDS011;41157;53.560;10.098;2022-08-01T07:00:25;7.10;;;3.70;;
55292;SDS011;41157;53.560;10.098;2022-08-01T07:02:53;12.38;;;3.55;;
55292;SDS011;41157;53.560;10.098;2022-08-01T07:05:19;6.10;;;3.38;;
55292;SDS011;41157;53.560;10.098;2022-08-01T07:07:45;7.85;;;3.75;;
55292;SDS011;41157;53.560;10.098;2022-08-01T07:10:11;6.15;;;3.22;;
55292;SDS011;41157;53.560;10.098;2022-08-01T07:12:38;8.02;;;3.85;;
55292;SDS011;41157;53.560;10.098;2022-08-01T07:15:05;8.48;;;4.07;;
55292;SDS011;41157;53.560;10.098;2022-08-01T07:17:31;7.50;;;4.20;;
55292;SDS011;41157;53.560;10.098;2022-08-01T07:19:57;11.07;;;3.78;;
55292;SDS011;41157;53.560;10.098;2022-08-01T07:22:23;10.77;;;4.68;;
55292;SDS011;41157;53.560;10.098;2022-08-01T07:24:49;9.02;;;3.63;;
55292;SDS011;41157;53.560;10.098;2022-08-01T07:27:15;12.85;;;4.50;;
55292;SDS011;41157;53.560;10.098;2022-08-01T07:29:41;9.27;;;4.05;;
55292;SDS011;41157;53.560;10.098;2022-08-01T07:32:07;11.10;;;4.35;;
55292;SDS011;41157;53.560;10.098;2022-08-01T07:34:33;9.48;;;3.65;;
55292;SDS011;41157;53.560;10.098;2022-08-01T07:36:59;10.07;;;3.50;;
55292;SDS011;41157;53.560;10.098;2022-08-01T07:39:25;10.27;;;4.13;;
55292;SDS011;41157;53.560;10.098;2022-08-01T07:41:51;7.70;;;3.38;;
55292;SDS011;41157;53.560;10.098;2022-08-01T07:44:17;8.98;;;3.88;;
55292;SDS011;41157;53.560;10.098;2022-08-01T07:46:43;5.57;;;3.50;;
55292;SDS011;41157;53.560;10.098;2022-08-01T07:49:09;7.65;;;3.97;;
55292;SDS011;41157;53.560;10.098;2022-08-01T07:51:35;11.25;;;3.95;;
55292;SDS011;41157;53.560;10.098;2022-08-01T07:54:01;12.15;;;4.38;;
55292;SDS011;41157;53.560;10.098;2022-08-01T07:56:27;8.50;;;4.05;;
55292;SDS011;41157;53.560;10.098;2022-08-01T07:58:53;9.13;;;3.70;;
55292;SDS011;41157;53.560;10.098;2022-08-01T08:01:18;10.38;;;3.75;;
55292;SDS011;41157;53.560;10.098;2022-08-01T08:03:45;11.75;;;4.22;;
55292;SDS011;41157;53.560;10.098;2022-08-01T08:06:11;9.85;;;4.28;;
55292;SDS011;41157;53.560;10.098;2022-08-01T08:08:37;14.23;;;4.50;;
55292;SDS011;41157;53.560;10.098;2022-08-01T08:11:03;12.18;;;4.45;;
55292;SDS011;41157;53.560;10.098;2022-08-01T08:13:29;13.40;;;3.88;;
55292;SDS011;41157;53.560;10.098;2022-08-01T08:15:55;15.80;;;4.35;;
55292;SDS011;41157;53.560;10.098;2022-08-01T08:18:23;9.13;;;3.40;;
55292;SDS011;41157;53.560;10.098;2022-08-01T08:20:49;9.63;;;3.28;;
55292;SDS011;41157;53.560;10.098;2022-08-01T08:23:15;12.60;;;3.15;;
55292;SDS011;41157;53.560;10.098;2022-08-01T08:25:59;9.18;;;2.95;;
55292;SDS011;41157;53.560;10.098;2022-08-01T08:28:25;7.70;;;2.67;;
55292;SDS011;41157;53.560;10.098;2022-08-01T08:30:51;13.50;;;3.20;;
55292;SDS011;41157;53.560;10.098;2022-08-01T08:33:19;13.68;;;2.90;;
55292;SDS011;41157;53.560;10.098;2022-08-01T08:35:45;8.07;;;2.38;;
55292;SDS011;41157;53.560;10.098;2022-08-01T08:38:11;11.40;;;3.15;;
55292;SDS011;41157;53.560;10.098;2022-08-01T08:40:37;8.93;;;2.75;;
55292;SDS011;41157;53.560;10.098;2022-08-01T08:43:04;9.68;;;2.65;;
55292;SDS011;41157;53.560;10.098;2022-08-01T08:45:30;9.23;;;2.33;;
55292;SDS011;41157;53.560;10.098;2022-08-01T08:47:57;5.10;;;1.80;;
55292;SDS011;41157;53.560;10.098;2022-08-01T08:50:23;5.18;;;2.17;;
55292;SDS011;41157;53.560;10.098;2022-08-01T08:52:50;10.82;;;2.50;;
55292;SDS011;41157;53.560;10.098;2022-08-01T08:55:18;5.72;;;2.08;;
55292;SDS011;41157;53.560;10.098;2022-08-01T08:57:44;9.20;;;2.97;;
55292;SDS011;41157;53.560;10.098;2022-08-01T09:00:11;6.93;;;2.42;;
55292;SDS011;41157;53.560;10.098;2022-08-01T09:02:44;10.30;;;2.58;;
55292;SDS011;41157;53.560;10.098;2022-08-01T09:05:11;6.70;;;2.25;;
55292;SDS011;41157;53.560;10.098;2022-08-01T09:07:37;8.63;;;2.20;;
55292;SDS011;41157;53.560;10.098;2022-08-01T09:10:04;10.57;;;1.98;;
55292;SDS011;41157;53.560;10.098;2022-08-01T09:12:30;3.40;;;1.70;;
55292;SDS011;41157;53.560;10.098;2022-08-01T09:14:56;5.80;;;2.38;;
55292;SDS011;41157;53.560;10.098;2022-08-01T09:17:22;5.28;;;2.20;;
55292;SDS011;41157;53.560;10.098;2022-08-01T09:19:52;7.25;;;1.88;;
55292;SDS011;41157;53.560;10.098;2022-08-01T09:22:20;8.38;;;2.22;;
55292;SDS011;41157;53.560;10.098;2022-08-01T09:25:01;10.05;;;2.33;;
55292;SDS011;41157;53.560;10.098;2022-08-01T09:27:28;5.93;;;2.10;;
55292;SDS011;41157;53.560;10.098;2022-08-01T09:29:55;6.47;;;2.30;;
55292;SDS011;41157;53.560;10.098;2022-08-01T09:32:32;6.13;;;2.17;;
55292;SDS011;41157;53.560;10.098;2022-08-01T09:34:58;6.60;;;2.50;;
55292;SDS011;41157;53.560;10.098;2022-08-01T09:37:43;7.82;;;2.03;;
55292;SDS011;41157;53.560;10.098;2022-08-01T09:40:09;8.40;;;2.20;;
55292;SDS011;41157;53.560;10.098;2022-08-01T09:42:35;7.72;;;2.45;;
55292;SDS011;41157;53.560;10.098;2022-08-01T09:45:01;5.60;;;1.85;;
55292;SDS011;41157;53.560;10.098;2022-08-01T09:47:40;8.23;;;1.92;;
55292;SDS011;41157;53.560;10.098;2022-08-01T09:50:06;8.80;;;2.30;;
55292;SDS011;41157;53.560;10.098;2022-08-01T09:52:32;10.30;;;2.40;;
55292;SDS011;41157;53.560;10.098;2022-08-01T09:55:03;16.00;;;2.40;;
55292;SDS011;41157;53.560;10.098;2022-08-01T09:57:29;8.00;;;2.30;;
55292;SDS011;41157;53.560;10.098;2022-08-01T09:59:56;7.70;;;2.05;;
55292;SDS011;41157;53.560;10.098;2022-08-01T10:02:26;7.32;;;2.17;;
55292;SDS011;41157;53.560;10.098;2022-08-01T10:04:53;7.97;;;2.58;;
55292;SDS011;41157;53.560;10.098;2022-08-01T10:07:19;8.90;;;2.22;;
55292;SDS011;41157;53.560;10.098;2022-08-01T10:09:47;6.13;;;2.08;;
55292;SDS011;41157;53.560;10.098;2022-08-01T10:12:17;7.18;;;2.25;;
55292;SDS011;41157;53.560;10.098;2022-08-01T10:14:44;9.95;;;2.40;;
55292;SDS011;41157;53.560;10.098;2022-08-01T10:17:12;7.68;;;1.95;;
55292;SDS011;41157;53.560;10.098;2022-08-01T10:19:38;8.15;;;2.13;;
55292;SDS011;41157;53.560;10.098;2022-08-01T10:22:07;9.00;;;2.65;;
55292;SDS011;41157;53.560;10.098;2022-08-01T10:24:35;7.05;;;2.03;;
55292;SDS011;41157;53.560;10.098;2022-08-01T10:27:02;5.80;;;2.05;;
55292;SDS011;41157;53.560;10.098;2022-08-01T10:29:31;6.65;;;2.38;;
55292;SDS011;41157;53.560;10.098;2022-08-01T10:32:01;7.35;;;2.30;;
55292;SDS011;41157;53.560;10.098;2022-08-01T10:34:27;9.82;;;2.40;;
55292;SDS011;41157;53.560;10.098;2022-08-01T10:36:54;9.88;;;2.67;;
55292;SDS011;41157;53.560;10.098;2022-08-01T10:39:20;8.35;;;2.30;;
55292;SDS011;41157;53.560;10.098;2022-08-01T10:41:46;5.97;;;2.30;;
55292;SDS011;41157;53.560;10.098;2022-08-01T10:44:12;6.03;;;2.10;;
55292;SDS011;41157;53.560;10.098;2022-08-01T10:46:39;4.07;;;2.28;;
55292;SDS011;41157;53.560;10.098;2022-08-01T10:49:15;7.15;;;1.92;;
55292;SDS011;41157;53.560;10.098;2022-08-01T10:51:42;9.48;;;2.25;;
55292;SDS011;41157;53.560;10.098;2022-08-01T10:54:09;7.20;;;2.58;;
55292;SDS011;41157;53.560;10.098;2022-08-01T10:56:39;5.75;;;2.10;;
55292;SDS011;41157;53.560;10.098;2022-08-01T10:59:05;8.77;;;2.15;;
55292;SDS011;41157;53.560;10.098;2022-08-01T11:01:31;8.65;;;2.38;;
55292;SDS011;41157;53.560;10.098;2022-08-01T11:04:00;7.38;;;2.20;;
55292;SDS011;41157;53.560;10.098;2022-08-01T11:08:56;5.78;;;2.10;;
55292;SDS011;41157;53.560;10.098;2022-08-01T11:11:23;5.88;;;1.98;;
55292;SDS011;41157;53.560;10.098;2022-08-01T11:14:04;7.85;;;1.95;;
55292;SDS011;41157;53.560;10.098;2022-08-01T11:16:38;7.10;;;2.08;;
55292;SDS011;41157;53.560;10.098;2022-08-01T11:19:04;5.20;;;1.77;;
55292;SDS011;41157;53.560;10.098;2022-08-01T11:24:16;6.65;;;2.00;;
55292;SDS011;41157;53.560;10.098;2022-08-01T11:32:31;9.20;;;1.95;;
55292;SDS011;41157;53.560;10.098;2022-08-01T11:35:00;7.65;;;2.10;;
55292;SDS011;41157;53.560;10.098;2022-08-01T11:37:26;7.93;;;1.90;;
55292;SDS011;41157;53.560;10.098;2022-08-01T11:45:46;6.55;;;2.00;;
55292;SDS011;41157;53.560;10.098;2022-08-01T11:48:19;5.70;;;1.77;;
55292;SDS011;41157;53.560;10.098;2022-08-01T11:50:46;5.30;;;1.60;;
55292;SDS011;41157;53.560;10.098;2022-08-01T11:53:12;7.60;;;1.90;;
55292;SDS011;41157;53.560;10.098;2022-08-01T11:55:53;5.88;;;2.30;;
55292;SDS011;41157;53.560;10.098;2022-08-01T11:58:24;6.60;;;1.92;;
55292;SDS011;41157;53.560;10.098;2022-08-01T12:00:50;7.32;;;2.38;;
55292;SDS011;41157;53.560;10.098;2022-08-01T12:03:17;5.30;;;2.25;;
55292;SDS011;41157;53.560;10.098;2022-08-01T12:05:48;6.93;;;2.50;;
55292;SDS011;41157;53.560;10.098;2022-08-01T12:08:23;6.25;;;1.90;;
55292;SDS011;41157;53.560;10.098;2022-08-01T12:10:49;4.13;;;1.50;;
55292;SDS011;41157;53.560;10.098;2022-08-01T12:13:15;4.35;;;1.67;;
55292;SDS011;41157;53.560;10.098;2022-08-01T12:15:43;4.05;;;1.92;;
55292;SDS011;41157;53.560;10.098;2022-08-01T12:18:10;9.15;;;2.00;;
55292;SDS011;41157;53.560;10.098;2022-08-01T12:20:37;8.05;;;2.05;;
55292;SDS011;41157;53.560;10.098;2022-08-01T12:23:05;8.93;;;1.63;;
55292;SDS011;41157;53.560;10.098;2022-08-01T12:25:32;6.32;;;1.92;;
55292;SDS011;41157;53.560;10.098;2022-08-01T12:28:02;7.82;;;2.05;;
55292;SDS011;41157;53.560;10.098;2022-08-01T12:30:28;7.75;;;1.90;;
55292;SDS011;41157;53.560;10.098;2022-08-01T12:33:01;5.78;;;2.15;;
55292;SDS011;41157;53.560;10.098;2022-08-01T12:35:28;7.20;;;1.80;;
55292;SDS011;41157;53.560;10.098;2022-08-01T12:40:21;5.15;;;1.50;;
55292;SDS011;41157;53.560;10.098;2022-08-01T12:42:49;5.95;;;1.80;;
55292;SDS011;41157;53.560;10.098;2022-08-01T12:45:19;5.97;;;1.92;;
55292;SDS011;41157;53.560;10.098;2022-08-01T12:47:46;5.22;;;1.70;;
55292;SDS011;41157;53.560;10.098;2022-08-01T12:50:14;4.28;;;1.80;;
55292;SDS011;41157;53.560;10.098;2022-08-01T12:52:40;5.22;;;1.75;;
55292;SDS011;41157;53.560;10.098;2022-08-01T12:57:39;3.40;;;1.38;;
55292;SDS011;41157;53.560;10.098;2022-08-01T13:02:35;8.98;;;1.88;;
55292;SDS011;41157;53.560;10.098;2022-08-01T13:05:02;6.03;;;1.70;;
55292;SDS011;41157;53.560;10.098;2022-08-01T13:08:01;4.20;;;1.63;;
55292;SDS011;41157;53.560;10.098;2022-08-01T13:10:24;9.38;;;1.73;;
55292;SDS011;41157;53.560;10.098;2022-08-01T13:12:51;6.18;;;1.83;;
55292;SDS011;41157;53.560;10.098;2022-08-01T13:15:25;5.72;;;1.60;;
55292;SDS011;41157;53.560;10.098;2022-08-01T13:17:52;5.20;;;1.88;;
55292;SDS011;41157;53.560;10.098;2022-08-01T13:22:50;6.57;;;2.20;;
55292;SDS011;41157;53.560;10.098;2022-08-01T13:25:17;6.30;;;1.63;;
55292;SDS011;41157;53.560;10.098;2022-08-01T13:27:43;7.35;;;2.55;;
55292;SDS011;41157;53.560;10.098;2022-08-01T13:30:09;5.70;;;2.13;;
55292;SDS011;41157;53.560;10.098;2022-08-01T13:32:36;8.00;;;2.28;;
55292;SDS011;41157;53.560;10.098;2022-08-01T13:35:03;3.78;;;1.90;;
55292;SDS011;41157;53.560;10.098;2022-08-01T13:37:29;5.47;;;2.10;;
55292;SDS011;41157;53.560;10.098;2022-08-01T13:39:55;7.30;;;1.90;;
55292;SDS011;41157;53.560;10.098;2022-08-01T13:42:21;4.72;;;1.48;;
55292;SDS011;41157;53.560;10.098;2022-08-01T13:44:47;4.13;;;1.88;;
55292;SDS011;41157;53.560;10.098;2022-08-01T13:47:13;4.30;;;1.77;;
55292;SDS011;41157;53.560;10.098;2022-08-01T13:50:00;5.70;;;1.70;;
55292;SDS011;41157;53.560;10.098;2022-08-01T13:52:27;4.85;;;1.67;;
55292;SDS011;41157;53.560;10.098;2022-08-01T13:54:53;4.22;;;1.70;;
55292;SDS011;41157;53.560;10.098;2022-08-01T13:57:19;4.20;;;1.70;;
55292;SDS011;41157;53.560;10.098;2022-08-01T13:59:46;5.07;;;1.70;;
55292;SDS011;41157;53.560;10.098;2022-08-01T14:02:12;5.63;;;1.98;;
55292;SDS011;41157;53.560;10.098;2022-08-01T14:04:38;6.97;;;2.00;;
55292;SDS011;41157;53.560;10.098;2022-08-01T14:07:04;6.47;;;1.92;;
55292;SDS011;41157;53.560;10.098;2022-08-01T14:09:30;4.55;;;1.80;;
55292;SDS011;41157;53.560;10.098;2022-08-01T14:11:58;2.58;;;1.27;;
55292;SDS011;41157;53.560;10.098;2022-08-01T14:14:24;4.03;;;1.42;;
55292;SDS011;41157;53.560;10.098;2022-08-01T14:16:50;3.55;;;1.73;;
55292;SDS011;41157;53.560;10.098;2022-08-01T14:19:16;5.38;;;1.58;;
55292;SDS011;41157;53.560;10.098;2022-08-01T14:21:42;5.07;;;1.70;;
55292;SDS011;41157;53.560;10.098;2022-08-01T14:24:08;6.80;;;2.25;;
55292;SDS011;41157;53.560;10.098;2022-08-01T14:26:35;6.35;;;1.58;;
55292;SDS011;41157;53.560;10.098;2022-08-01T14:29:01;9.55;;;1.70;;
55292;SDS011;41157;53.560;10.098;2022-08-01T14:31:27;8.40;;;1.90;;
55292;SDS011;41157;53.560;10.098;2022-08-01T14:33:54;8.63;;;2.08;;
55292;SDS011;41157;53.560;10.098;2022-08-01T14:36:20;5.32;;;2.88;;
55292;SDS011;41157;53.560;10.098;2022-08-01T14:38:46;6.05;;;1.83;;
55292;SDS011;41157;53.560;10.098;2022-08-01T14:41:13;7.57;;;2.28;;
55292;SDS011;41157;53.560;10.098;2022-08-01T14:43:39;5.22;;;2.03;;
55292;SDS011;41157;53.560;10.098;2022-08-01T14:46:05;6.55;;;1.67;;
55292;SDS011;41157;53.560;10.098;2022-08-01T14:48:32;8.52;;;1.73;;
55292;SDS011;41157;53.560;10.098;2022-08-01T14:50:59;7.55;;;1.83;;
55292;SDS011;41157;53.560;10.098;2022-08-01T14:53:28;6.80;;;2.15;;
55292;SDS011;41157;53.560;10.098;2022-08-01T14:55:53;6.03;;;1.60;;
55292;SDS011;41157;53.560;10.098;2022-08-01T14:58:19;5.78;;;2.05;;
55292;SDS011;41157;53.560;10.098;2022-08-01T15:00:46;4.10;;;1.50;;
55292;SDS011;41157;53.560;10.098;2022-08-01T15:03:12;7.55;;;1.67;;
55292;SDS011;41157;53.560;10.098;2022-08-01T15:05:38;5.05;;;1.90;;
55292;SDS011;41157;53.560;10.098;2022-08-01T15:08:05;4.50;;;1.55;;
55292;SDS011;41157;53.560;10.098;2022-08-01T15:10:31;6.38;;;1.52;;